createdAt,value
2018-03-30T00:00:30.132Z,94.20
2018-03-30T00:02:57.569Z,94.30
2018-03-30T00:05:25.812Z,94.30
2018-03-30T00:07:53.290Z,94.30
2018-03-30T00:10:20.733Z,94.20
2018-03-30T00:12:48.168Z,94.20
2018-03-30T00:15:15.649Z,94.20
2018-03-30T00:17:43.109Z,94.10
2018-03-30T00:20:10.611Z,94.10
2018-03-30T00:22:38.052Z,94.10
2018-03-30T00:25:05.490Z,94.10
2018-03-30T00:27:37.773Z,94.00
2018-03-30T00:30:05.972Z,93.90
2018-03-30T00:32:33.454Z,93.90
2018-03-30T00:35:00.889Z,93.90
2018-03-30T00:37:28.352Z,93.80
2018-03-30T00:39:55.815Z,93.80
2018-03-30T00:42:23.295Z,93.90
2018-03-30T00:44:50.728Z,93.90
2018-03-30T00:47:19.857Z,93.70
2018-03-30T00:49:47.317Z,93.70
2018-03-30T00:52:14.761Z,93.70
2018-03-30T00:54:42.196Z,93.70
2018-03-30T00:57:09.651Z,93.60
2018-03-30T00:59:37.117Z,93.40
2018-03-30T01:02:04.601Z,93.50
2018-03-30T01:04:32.061Z,93.40
2018-03-30T01:07:00.276Z,93.80
2018-03-30T01:09:27.753Z,93.70
2018-03-30T01:11:55.216Z,93.70
2018-03-30T01:14:22.669Z,93.60
2018-03-30T01:16:50.140Z,93.40
2018-03-30T01:19:17.612Z,93.50
2018-03-30T01:21:45.103Z,93.40
2018-03-30T01:24:13.289Z,93.40
2018-03-30T01:26:40.752Z,93.40
2018-03-30T01:29:08.226Z,93.40
2018-03-30T01:31:35.693Z,93.50
2018-03-30T01:34:03.577Z,93.50
2018-03-30T01:36:31.008Z,93.40
2018-03-30T01:38:58.474Z,93.60
2018-03-30T01:41:25.918Z,93.60
2018-03-30T01:43:53.357Z,93.70
2018-03-30T01:46:20.852Z,93.80
2018-03-30T01:48:48.324Z,93.90
2018-03-30T01:51:15.778Z,93.80
2018-03-30T01:53:43.217Z,93.60
2018-03-30T01:56:10.669Z,93.70
2018-03-30T01:58:38.125Z,93.60
2018-03-30T02:01:05.588Z,93.70
2018-03-30T02:03:33.042Z,93.70
2018-03-30T02:06:00.489Z,93.80
2018-03-30T02:08:27.955Z,93.80
2018-03-30T02:10:55.417Z,93.80
2018-03-30T02:13:22.861Z,93.80
2018-03-30T02:15:50.305Z,93.90
2018-03-30T02:18:17.802Z,93.90
2018-03-30T02:20:46.018Z,94.00
2018-03-30T02:23:13.476Z,94.00
2018-03-30T02:25:40.960Z,93.90
2018-03-30T02:28:08.425Z,93.90
2018-03-30T02:30:35.866Z,93.90
2018-03-30T02:33:03.353Z,94.00
2018-03-30T02:35:30.797Z,94.10
2018-03-30T02:37:58.273Z,94.10
2018-03-30T02:40:25.715Z,94.50
2018-03-30T02:42:53.157Z,94.20
2018-03-30T02:45:20.622Z,94.20
2018-03-30T02:47:48.852Z,94.30
2018-03-30T02:50:16.318Z,94.30
2018-03-30T02:52:43.770Z,94.20
2018-03-30T02:55:11.220Z,94.40
2018-03-30T02:57:38.713Z,94.40
2018-03-30T03:00:06.198Z,94.40
2018-03-30T03:02:33.665Z,94.30
2018-03-30T03:05:01.908Z,94.50
2018-03-30T03:07:29.364Z,94.50
2018-03-30T03:09:56.814Z,94.60
2018-03-30T03:12:24.864Z,94.60
2018-03-30T03:14:52.325Z,94.60
2018-03-30T03:17:19.797Z,94.70
2018-03-30T03:19:47.259Z,94.70
2018-03-30T03:22:14.732Z,94.70
2018-03-30T03:24:42.188Z,94.60
2018-03-30T03:27:09.654Z,94.70
2018-03-30T03:29:37.258Z,94.60
2018-03-30T03:32:04.714Z,94.60
2018-03-30T03:34:32.173Z,94.60
2018-03-30T03:36:59.624Z,95.00
2018-03-30T03:39:27.092Z,94.60
2018-03-30T03:41:54.557Z,94.60
2018-03-30T03:44:22.004Z,94.80
2018-03-30T03:46:49.456Z,94.80
2018-03-30T03:49:16.944Z,94.80
2018-03-30T03:51:44.406Z,94.70
2018-03-30T03:54:11.855Z,94.70
2018-03-30T03:56:39.366Z,94.60
2018-03-30T03:59:07.222Z,94.80
2018-03-30T04:01:35.426Z,94.80
2018-03-30T04:04:02.881Z,94.80
2018-03-30T04:06:30.361Z,94.70
2018-03-30T04:08:58.574Z,94.80
2018-03-30T04:11:26.020Z,94.70
2018-03-30T04:13:53.469Z,94.70
2018-03-30T04:16:20.944Z,94.60
2018-03-30T04:18:48.398Z,94.90
2018-03-30T04:21:15.826Z,94.80
2018-03-30T04:23:43.283Z,94.70
2018-03-30T04:26:10.755Z,95.10
2018-03-30T04:28:38.237Z,94.80
2018-03-30T04:31:06.460Z,94.90
2018-03-30T04:33:33.917Z,94.90
2018-03-30T04:36:01.385Z,94.90
2018-03-30T04:38:28.849Z,94.90
2018-03-30T04:40:56.336Z,94.80
2018-03-30T04:43:24.555Z,95.00
2018-03-30T04:45:52.022Z,94.90
2018-03-30T04:48:20.250Z,95.00
2018-03-30T04:50:48.464Z,95.10
2018-03-30T04:53:15.940Z,95.10
2018-03-30T04:55:43.404Z,95.20
2018-03-30T04:58:10.852Z,95.10
2018-03-30T05:00:38.302Z,95.10
2018-03-30T05:03:05.827Z,95.00
2018-03-30T05:05:34.008Z,95.30
2018-03-30T05:08:01.455Z,94.90
2018-03-30T05:10:28.904Z,94.90
2018-03-30T05:12:56.368Z,95.00
2018-03-30T05:15:23.815Z,95.00
2018-03-30T05:17:51.289Z,95.00
2018-03-30T05:20:18.737Z,95.00
2018-03-30T05:22:46.208Z,94.90
2018-03-30T05:25:13.685Z,94.90
2018-03-30T05:27:41.128Z,94.90
2018-03-30T05:30:08.590Z,94.90
2018-03-30T05:32:36.052Z,94.70
2018-03-30T05:35:03.515Z,94.70
2018-03-30T05:37:30.961Z,94.80
2018-03-30T05:39:59.228Z,94.80
2018-03-30T05:42:26.704Z,94.70
2018-03-30T05:44:54.189Z,94.50
2018-03-30T05:47:21.648Z,94.40
2018-03-30T05:49:49.112Z,94.80
2018-03-30T05:52:17.366Z,94.10
2018-03-30T05:54:44.812Z,94.10
2018-03-30T05:57:12.258Z,94.00
2018-03-30T05:59:39.708Z,93.90
2018-03-30T06:02:07.158Z,93.60
2018-03-30T06:04:34.609Z,93.50
2018-03-30T06:07:02.062Z,93.40
2018-03-30T06:09:29.573Z,93.30
2018-03-30T06:11:57.051Z,92.90
2018-03-30T06:14:24.497Z,92.60
2018-03-30T06:16:52.740Z,91.80
2018-03-30T06:19:20.212Z,91.80
2018-03-30T06:21:47.666Z,91.50
2018-03-30T06:24:15.133Z,91.20
2018-03-30T06:26:42.580Z,91.20
2018-03-30T06:29:10.038Z,91.20
2018-03-30T06:31:38.216Z,91.30
2018-03-30T06:34:05.668Z,91.10
2018-03-30T06:36:33.110Z,91.10
2018-03-30T06:39:00.566Z,90.90
2018-03-30T06:41:28.016Z,90.90
2018-03-30T06:43:55.505Z,90.60
2018-03-30T06:46:23.151Z,90.40
2018-03-30T06:48:51.637Z,90.20
2018-03-30T06:51:19.107Z,89.00
2018-03-30T06:53:47.342Z,86.90
2018-03-30T06:56:14.841Z,86.80
2018-03-30T06:58:43.082Z,86.90
2018-03-30T07:01:10.527Z,86.90
2018-03-30T07:03:38.008Z,86.40
2018-03-30T07:06:06.255Z,86.30
2018-03-30T07:08:33.694Z,86.20
2018-03-30T07:11:01.181Z,85.20
2018-03-30T07:13:28.653Z,83.60
2018-03-30T07:15:56.203Z,83.50
2018-03-30T07:18:23.689Z,81.90
2018-03-30T07:20:52.158Z,79.70
2018-03-30T07:23:20.361Z,79.60
2018-03-30T07:25:47.896Z,78.90
2018-03-30T07:28:16.879Z,77.50
2018-03-30T07:30:44.345Z,77.50
2018-03-30T07:33:11.794Z,78.00
2018-03-30T07:35:39.270Z,76.50
2018-03-30T07:38:07.533Z,77.60
2018-03-30T07:40:35.588Z,77.40
2018-03-30T07:43:03.041Z,76.00
2018-03-30T07:45:30.508Z,74.70
2018-03-30T07:47:58.154Z,75.20
2018-03-30T07:50:27.480Z,74.90
2018-03-30T07:52:55.102Z,73.80
2018-03-30T07:55:22.673Z,73.60
2018-03-30T07:57:50.142Z,73.50
2018-03-30T08:00:17.608Z,73.20
2018-03-30T08:02:45.714Z,72.70
2018-03-30T08:05:13.180Z,71.60
2018-03-30T08:07:40.645Z,70.80
2018-03-30T08:10:08.348Z,71.50
2018-03-30T08:12:35.788Z,71.30
2018-03-30T08:15:03.276Z,71.00
2018-03-30T08:17:30.750Z,70.60
2018-03-30T08:19:58.344Z,69.50
2018-03-30T08:22:26.502Z,70.40
2018-03-30T08:24:53.974Z,69.80
2018-03-30T08:27:21.436Z,70.60
2018-03-30T08:29:49.203Z,69.50
2018-03-30T08:32:16.777Z,69.00
2018-03-30T08:34:44.278Z,67.70
2018-03-30T08:37:12.069Z,66.20
2018-03-30T08:39:39.682Z,65.00
2018-03-30T08:42:07.161Z,63.40
2018-03-30T08:44:34.618Z,63.10
2018-03-30T08:47:02.065Z,62.80
2018-03-30T08:49:30.292Z,61.30
2018-03-30T08:51:57.740Z,61.20
2018-03-30T08:54:25.212Z,60.30
2018-03-30T08:56:52.670Z,61.20
2018-03-30T08:59:20.113Z,61.00
2018-03-30T09:01:47.555Z,59.50
2018-03-30T09:04:15.022Z,58.00
2018-03-30T09:06:43.260Z,57.90
2018-03-30T09:09:11.655Z,58.80
2018-03-30T09:11:39.970Z,57.80
2018-03-30T09:14:07.437Z,57.70
2018-03-30T09:16:34.909Z,56.90
2018-03-30T09:19:02.377Z,57.40
2018-03-30T09:21:30.599Z,59.90
2018-03-30T09:23:58.884Z,59.80
2018-03-30T09:26:26.437Z,59.60
2018-03-30T09:28:53.958Z,60.10
2018-03-30T09:31:22.411Z,58.90
2018-03-30T09:33:49.851Z,58.60
2018-03-30T09:36:17.337Z,57.80
2018-03-30T09:38:46.503Z,56.90
2018-03-30T09:41:14.042Z,56.70
2018-03-30T09:43:41.598Z,57.70
2018-03-30T09:46:09.090Z,56.20
2018-03-30T09:48:36.585Z,57.10
2018-03-30T09:51:04.127Z,55.70
2018-03-30T09:53:31.614Z,54.50
2018-03-30T09:55:59.089Z,53.60
2018-03-30T09:58:26.525Z,54.30
2018-03-30T10:03:52.720Z,53.90
2018-03-30T10:06:20.165Z,52.30
2018-03-30T10:08:47.634Z,52.10
2018-03-30T10:11:15.101Z,52.10
2018-03-30T10:13:43.313Z,51.70
2018-03-30T10:16:10.822Z,51.20
2018-03-30T10:18:38.270Z,51.60
2018-03-30T10:21:05.718Z,50.70
2018-03-30T10:23:33.249Z,48.80
2018-03-30T10:26:00.761Z,43.40
2018-03-30T10:28:28.234Z,43.90
2018-03-30T10:30:56.467Z,44.20
2018-03-30T10:33:23.935Z,44.10
2018-03-30T10:35:51.397Z,45.60
2018-03-30T10:38:18.869Z,43.90
2018-03-30T10:40:47.108Z,42.60
2018-03-30T10:43:14.558Z,42.80
2018-03-30T10:45:42.020Z,41.00
2018-03-30T10:48:09.466Z,42.00
2018-03-30T10:50:37.835Z,43.20
2018-03-30T10:53:05.307Z,43.50
2018-03-30T10:55:32.753Z,45.00
2018-03-30T10:58:00.250Z,45.20
2018-03-30T11:00:27.727Z,46.00
2018-03-30T11:02:55.941Z,44.50
2018-03-30T11:05:23.386Z,44.40
2018-03-30T11:07:51.047Z,42.60
2018-03-30T11:10:18.485Z,42.30
2018-03-30T11:12:45.984Z,43.30
2018-03-30T11:15:14.160Z,42.90
2018-03-30T11:17:41.616Z,42.80
2018-03-30T11:20:09.073Z,43.20
2018-03-30T11:22:37.343Z,41.80
2018-03-30T11:25:04.827Z,41.70
2018-03-30T11:27:32.280Z,41.90
2018-03-30T11:29:59.757Z,41.20
2018-03-30T11:32:28.006Z,41.50
2018-03-30T11:34:55.470Z,41.50
2018-03-30T11:37:22.924Z,41.80
2018-03-30T11:39:50.388Z,41.80
2018-03-30T11:42:17.826Z,41.40
2018-03-30T11:44:45.309Z,41.90
2018-03-30T11:47:12.747Z,42.50
2018-03-30T11:49:40.186Z,44.20
2018-03-30T11:52:07.661Z,43.80
2018-03-30T11:54:35.163Z,44.50
2018-03-30T11:57:02.635Z,46.80
2018-03-30T11:59:30.116Z,46.40
2018-03-30T12:01:57.589Z,47.20
2018-03-30T12:04:25.065Z,47.90
2018-03-30T12:06:52.518Z,48.40
2018-03-30T12:09:19.960Z,49.40
2018-03-30T12:11:47.436Z,50.40
2018-03-30T12:14:15.663Z,48.50
2018-03-30T12:16:43.116Z,48.40
2018-03-30T12:19:10.584Z,49.30
2018-03-30T12:21:38.042Z,49.20
2018-03-30T12:24:05.504Z,49.70
2018-03-30T12:26:32.980Z,48.80
2018-03-30T12:29:00.441Z,48.00
2018-03-30T12:31:27.928Z,49.10
2018-03-30T12:33:56.161Z,51.20
2018-03-30T12:36:23.627Z,51.20
2018-03-30T12:38:51.105Z,50.50
2018-03-30T12:41:19.342Z,50.70
2018-03-30T12:43:46.811Z,50.70
2018-03-30T12:46:14.256Z,51.20
2018-03-30T12:48:42.495Z,50.30
2018-03-30T12:51:09.964Z,50.20
2018-03-30T12:53:37.434Z,50.80
2018-03-30T12:56:04.921Z,51.70
2018-03-30T12:58:32.406Z,52.00
2018-03-30T13:01:00.608Z,52.40
2018-03-30T13:03:28.098Z,52.30
2018-03-30T13:05:55.557Z,52.40
2018-03-30T13:08:24.822Z,53.10
2018-03-30T13:13:54.958Z,52.30
2018-03-30T13:16:22.421Z,53.00
2018-03-30T13:18:49.884Z,52.50
2018-03-30T13:21:17.368Z,52.30
2018-03-30T13:23:44.907Z,52.60
2018-03-30T13:26:12.364Z,53.10
2018-03-30T13:28:39.847Z,53.60
2018-03-30T13:31:07.346Z,54.20
2018-03-30T13:33:34.914Z,54.50
2018-03-30T13:36:03.144Z,54.90
2018-03-30T13:38:30.628Z,54.80
2018-03-30T13:40:58.097Z,55.10
2018-03-30T13:43:25.562Z,54.70
2018-03-30T13:45:53.057Z,55.20
2018-03-30T13:48:20.492Z,54.80
2018-03-30T13:50:47.999Z,54.90
2018-03-30T13:53:18.173Z,55.10
2018-03-30T13:55:46.543Z,55.00
2018-03-30T14:01:20.064Z,52.50
2018-03-30T14:03:51.793Z,52.80
2018-03-30T14:06:34.860Z,52.30
2018-03-30T14:12:08.218Z,52.50
2018-03-30T14:14:36.434Z,53.20
2018-03-30T14:17:03.877Z,53.20
2018-03-30T14:19:32.175Z,52.70
2018-03-30T14:22:10.532Z,52.80
2018-03-30T14:24:39.650Z,53.70
2018-03-30T14:27:10.010Z,53.70
2018-03-30T14:29:38.222Z,53.90
2018-03-30T14:32:11.183Z,54.10
2018-03-30T14:34:43.170Z,53.90
2018-03-30T14:37:22.976Z,54.50
2018-03-30T14:39:53.742Z,54.30
2018-03-30T14:42:21.982Z,54.80
2018-03-30T14:44:54.653Z,54.70
2018-03-30T14:47:24.982Z,55.50
2018-03-30T14:50:00.173Z,55.40
2018-03-30T14:55:37.352Z,55.50
2018-03-30T14:58:10.414Z,54.70
2018-03-30T15:00:38.648Z,55.40
2018-03-30T15:03:21.048Z,55.80
2018-03-30T15:05:53.061Z,56.10
2018-03-30T15:08:32.053Z,56.50
2018-03-30T15:14:16.522Z,57.10
2018-03-30T15:16:51.612Z,57.20
2018-03-30T15:19:20.378Z,57.20
2018-03-30T15:22:00.737Z,57.50
2018-03-30T15:24:41.892Z,58.00
2018-03-30T15:30:20.539Z,57.90
2018-03-30T15:32:59.641Z,58.50
2018-03-30T15:35:28.735Z,58.80
2018-03-30T15:37:56.962Z,59.10
2018-03-30T15:40:24.433Z,59.10
2018-03-30T15:42:55.324Z,59.30
2018-03-30T15:45:26.420Z,59.30
2018-03-30T15:47:53.881Z,59.40
2018-03-30T15:50:21.351Z,59.90
2018-03-30T15:52:49.560Z,60.10
2018-03-30T15:55:17.027Z,60.00
2018-03-30T15:57:44.474Z,60.70
2018-03-30T16:00:12.747Z,59.80
2018-03-30T16:02:40.220Z,60.60
2018-03-30T16:05:07.689Z,60.30
2018-03-30T16:07:35.177Z,59.60
2018-03-30T16:10:14.913Z,60.10
2018-03-30T16:12:43.876Z,60.20
2018-03-30T16:15:11.358Z,60.60
2018-03-30T16:17:39.608Z,60.20
2018-03-30T16:22:43.647Z,61.20
2018-03-30T16:25:10.613Z,61.20
2018-03-30T16:27:40.921Z,60.90
2018-03-30T16:30:28.281Z,61.40
2018-03-30T16:32:55.847Z,61.40
2018-03-30T16:35:23.006Z,61.80
2018-03-30T16:37:49.972Z,61.30
2018-03-30T16:40:16.921Z,61.50
2018-03-30T16:42:43.903Z,60.90
2018-03-30T16:45:10.896Z,61.10
2018-03-30T16:47:37.846Z,61.60
2018-03-30T16:50:04.845Z,62.50
2018-03-30T16:52:31.812Z,62.90
2018-03-30T16:54:58.806Z,63.50
2018-03-30T16:57:25.781Z,64.20
2018-03-30T16:59:52.732Z,65.10
2018-03-30T17:02:20.532Z,66.20
2018-03-30T17:04:47.547Z,66.20
2018-03-30T17:07:15.321Z,66.80
2018-03-30T17:09:43.111Z,67.40
2018-03-30T17:12:10.060Z,67.40
2018-03-30T17:14:37.068Z,67.50
2018-03-30T17:17:04.109Z,67.80
2018-03-30T17:19:31.901Z,68.70
2018-03-30T17:21:58.932Z,68.70
2018-03-30T17:24:25.929Z,69.00
2018-03-30T17:26:52.892Z,69.80
2018-03-30T17:29:19.868Z,70.70
2018-03-30T17:31:47.764Z,72.30
2018-03-30T17:34:14.764Z,72.30
2018-03-30T17:36:42.945Z,74.20
2018-03-30T17:39:10.734Z,75.50
2018-03-30T17:41:37.743Z,75.40
2018-03-30T17:44:04.701Z,76.40
2018-03-30T17:46:32.459Z,77.60
2018-03-30T17:49:03.839Z,78.50
2018-03-30T17:51:30.831Z,78.40
2018-03-30T17:53:57.821Z,80.00
2018-03-30T17:56:24.784Z,82.80
2018-03-30T17:58:51.758Z,86.30
2018-03-30T18:01:18.762Z,86.80
2018-03-30T18:03:45.759Z,87.30
2018-03-30T18:06:13.098Z,87.70
2018-03-30T18:08:50.691Z,87.40
2018-03-30T18:11:17.693Z,88.50
2018-03-30T18:16:26.894Z,89.10
2018-03-30T18:18:53.952Z,88.90
2018-03-30T18:21:21.181Z,88.90
2018-03-30T18:23:48.885Z,89.50
2018-03-30T18:26:16.140Z,89.80
2018-03-30T18:28:43.307Z,90.10
2018-03-30T18:31:11.633Z,90.40
2018-03-30T18:33:40.387Z,90.50
2018-03-30T18:36:07.546Z,90.50
2018-03-30T18:38:34.684Z,90.40
2018-03-30T18:41:01.836Z,90.70
2018-03-30T18:43:29.294Z,90.70
2018-03-30T18:45:56.473Z,90.50
2018-03-30T18:48:24.313Z,91.10
2018-03-30T18:50:51.342Z,90.90
2018-03-30T18:53:18.400Z,91.00
2018-03-30T18:55:49.415Z,90.80
2018-03-30T18:58:16.467Z,91.10
2018-03-30T19:00:45.625Z,91.10
2018-03-30T19:03:12.779Z,91.10
2018-03-30T19:05:40.914Z,91.30
2018-03-30T19:08:08.158Z,91.30
2018-03-30T19:10:38.841Z,91.20
2018-03-30T19:13:06.337Z,91.60
2018-03-30T19:15:33.480Z,91.50
2018-03-30T19:18:00.527Z,91.80
2018-03-30T19:20:27.622Z,92.10
2018-03-30T19:22:54.740Z,92.90
2018-03-30T19:25:21.899Z,92.80
2018-03-30T19:27:49.013Z,93.20
2018-03-30T19:30:16.068Z,93.70
2018-03-30T19:32:43.082Z,94.40
2018-03-30T19:35:10.855Z,95.20
2018-03-30T19:37:37.845Z,95.10
2018-03-30T19:40:04.861Z,94.90
2018-03-30T19:42:36.878Z,95.60
2018-03-30T19:45:03.872Z,96.20
2018-03-30T19:47:30.905Z,96.90
2018-03-30T19:49:58.700Z,97.70
2018-03-30T19:52:25.704Z,97.70
2018-03-30T19:54:53.452Z,98.10
2018-03-30T19:57:20.424Z,98.10
2018-03-30T19:59:48.208Z,98.50
2018-03-30T20:02:15.208Z,98.50
2018-03-30T20:04:42.204Z,98.50
2018-03-30T20:07:09.228Z,98.20
2018-03-30T20:09:37.242Z,98.70
2018-03-30T20:12:04.341Z,98.70
2018-03-30T20:14:31.420Z,98.40
2018-03-30T20:16:58.501Z,98.90
2018-03-30T20:19:25.587Z,99.00
2018-03-30T20:21:52.661Z,98.60
2018-03-30T20:24:19.721Z,98.80
2018-03-30T20:26:47.206Z,99.00
2018-03-30T20:29:15.091Z,99.10
2018-03-30T20:31:42.148Z,99.00
2018-03-30T20:34:09.199Z,98.90
2018-03-30T20:36:37.123Z,99.20
2018-03-30T20:39:04.175Z,99.10
2018-03-30T20:41:31.232Z,99.50
2018-03-30T20:43:58.267Z,99.30
2018-03-30T20:46:25.413Z,99.20
2018-03-30T20:48:59.552Z,98.80
2018-03-30T20:51:26.648Z,98.70
2018-03-30T20:53:53.734Z,98.60
2018-03-30T20:56:20.802Z,98.30
2018-03-30T20:58:48.729Z,98.20
2018-03-30T21:01:15.818Z,98.10
2018-03-30T21:03:42.857Z,97.70
2018-03-30T21:06:10.680Z,98.20
2018-03-30T21:08:37.740Z,98.20
2018-03-30T21:11:04.960Z,98.20
2018-03-30T21:13:33.933Z,97.60
2018-03-30T21:16:01.800Z,97.70
2018-03-30T21:18:28.870Z,97.70
2018-03-30T21:20:57.406Z,97.90
2018-03-30T21:23:27.597Z,98.00
2018-03-30T21:25:55.146Z,98.10
2018-03-30T21:28:28.979Z,98.40
2018-03-30T21:30:57.453Z,98.30
2018-03-30T21:33:24.648Z,98.50
2018-03-30T21:35:52.641Z,98.40
2018-03-30T21:38:19.706Z,98.50
2018-03-30T21:40:47.045Z,98.80
2018-03-30T21:43:14.247Z,98.80
2018-03-30T21:45:41.311Z,99.40
2018-03-30T21:48:08.441Z,99.10
2018-03-30T21:50:36.318Z,99.80
2018-03-30T21:53:04.121Z,99.50
2018-03-30T21:55:31.191Z,99.50
2018-03-30T21:57:58.246Z,98.90
2018-03-30T22:00:25.318Z,98.90
2018-03-30T22:02:52.439Z,98.70
2018-03-30T22:05:19.529Z,98.80
2018-03-30T22:07:46.549Z,98.60
2018-03-30T22:10:13.662Z,99.20
2018-03-30T22:12:40.717Z,99.50
2018-03-30T22:15:07.834Z,99.70
2018-03-30T22:17:34.837Z,99.60
2018-03-30T22:20:01.893Z,99.80
2018-03-30T22:22:28.926Z,99.90
2018-03-30T22:24:56.010Z,99.90
2018-03-30T22:27:23.924Z,99.90
2018-03-30T22:29:50.969Z,99.90
2018-03-30T22:32:17.991Z,99.80
2018-03-30T22:34:45.047Z,99.80
2018-03-30T22:37:12.129Z,99.70
2018-03-30T22:39:39.174Z,99.60
2018-03-30T22:42:06.220Z,99.50
2018-03-30T22:44:33.318Z,98.80
2018-03-30T22:47:00.341Z,97.90
2018-03-30T22:49:28.186Z,98.30
2018-03-30T22:51:55.236Z,98.20
2018-03-30T22:54:22.286Z,97.50
2018-03-30T22:56:49.578Z,97.80
2018-03-30T22:59:16.666Z,98.00
2018-03-30T23:01:43.746Z,98.80
2018-03-30T23:04:11.645Z,99.30
2018-03-30T23:06:39.426Z,99.30
2018-03-30T23:09:06.541Z,99.30
2018-03-30T23:11:33.618Z,99.30
2018-03-30T23:14:00.681Z,99.30
2018-03-30T23:16:27.781Z,99.70
2018-03-30T23:18:55.604Z,99.80
2018-03-30T23:21:22.731Z,99.80
2018-03-30T23:23:49.786Z,99.80
2018-03-30T23:26:16.862Z,99.60
2018-03-30T23:28:43.976Z,99.90
2018-03-30T23:31:11.088Z,99.90
2018-03-30T23:33:38.213Z,99.90
2018-03-30T23:36:05.338Z,99.90
2018-03-30T23:38:32.440Z,99.70
2018-03-30T23:40:59.526Z,99.60
2018-03-30T23:43:26.622Z,99.80
2018-03-30T23:45:54.415Z,99.90
2018-03-30T23:48:21.582Z,99.80
2018-03-30T23:50:48.693Z,99.80
2018-03-30T23:53:16.491Z,99.60
2018-03-30T23:55:43.529Z,99.60
2018-03-30T23:58:10.573Z,99.70
